USCGC Tern — NEOT — position and weather

sailwx.info

Track history (hours):
 
Tides and Currents Weather Stations Pressure Air Temp Water Temp Dewpoint Dewpoint Depression Visibility Wind Speed Wind Dir Waves Ship Positions

USCGC Tern

Last reported at 2017-Aug-16 23:30 UTC. Time now 2017-Aug-16 23:45 UTC.
Position N 37°50' W 122°34'.

Length 26 m; draft 1.7 m.

Type: SAR. MMSI: 366999711.

Date/timePositionNaut miles runAvg speedWind from/ knotsBaromVisibWave heightAir tempDewpointWater temp
2017-Aug-16 23:30N 37°50' W 122°34'611.3
2017-Aug-16 23:00N 37°51' W 122°41'2 3.8
2017-Aug-16 22:28N 37°52' W 122°43'0 0.4
2017-Aug-16 22:00N 37°52' W 122°43'0 0.2
2017-Aug-16 21:29N 37°53' W 122°43'3 5.1
2017-Aug-16 21:00N 37°54' W 122°46'5 9.5
2017-Aug-16 20:30N 37°56' W 122°51'4 8.8
2017-Aug-16 20:00N 37°58' W 122°56'2 4.4
2017-Aug-16 19:30N 37°57' W 122°54'8 9.0
2017-Aug-16 18:38N 37°53' W 122°46'210.0
2017-Aug-16 18:24N 37°52' W 122°43'1 1.6
2017-Aug-16 17:48N 37°52' W 122°42'1 3.0
2017-Aug-16 17:27N 37°51' W 122°42'2 2.8
2017-Aug-16 16:33N 37°48' W 122°42'1 5.1
2017-Aug-16 16:26N 37°49' W 122°42'3 6.1
2017-Aug-16 16:00N 37°50' W 122°39'612.2
2017-Aug-16 15:30N 37°49' W 122°32'816.0
2017-Aug-16 15:00N 37°49' W 122°22'0 0.3
2017-Aug-16 14:30N 37°49' W 122°22'0 0.0
2017-Aug-16 14:00N 37°49' W 122°22'0 0.0
2017-Aug-16 13:28N 37°49' W 122°22'0 0.0
2017-Aug-16 13:00N 37°49' W 122°22'0 0.0
2017-Aug-16 12:30N 37°49' W 122°22'0 0.0
2017-Aug-16 12:00N 37°49' W 122°22'0 0.0
2017-Aug-16 11:28N 37°49' W 122°22'0 0.0
2017-Aug-16 10:57N 37°49' W 122°22'0 0.0
2017-Aug-16 10:24N 37°49' W 122°22'0 0.0
2017-Aug-16 10:00N 37°49' W 122°22'0 0.0
2017-Aug-16 09:24N 37°49' W 122°22'0 0.0
2017-Aug-16 08:57N 37°49' W 122°22'0 0.0
2017-Aug-16 08:30N 37°49' W 122°22'0 0.0
2017-Aug-16 08:00N 37°49' W 122°22'0 0.0
2017-Aug-16 07:30N 37°49' W 122°22'0 0.0
2017-Aug-16 06:54N 37°49' W 122°22'0 0.0
2017-Aug-16 06:30N 37°49' W 122°22'0 0.0
2017-Aug-16 06:00N 37°49' W 122°22'0 0.0
2017-Aug-16 05:30N 37°49' W 122°22'0 0.0
2017-Aug-16 04:57N 37°49' W 122°22'0 0.0
2017-Aug-16 04:27N 37°49' W 122°22'0 0.0
2017-Aug-16 04:00N 37°49' W 122°22'0 0.0
2017-Aug-16 03:27N 37°49' W 122°22'0 0.0
2017-Aug-16 02:57N 37°49' W 122°22'0 0.0
2017-Aug-16 02:30N 37°49' W 122°22'0 0.0
2017-Aug-16 01:57N 37°49' W 122°22'0 0.0
2017-Aug-16 01:30N 37°49' W 122°22'0 0.0
2017-Aug-16 00:57N 37°49' W 122°22'0 0.0
2017-Aug-16 00:30N 37°49' W 122°22'0 0.0
2017-Aug-15 23:57N 37°49' W 122°22'0 0.0
2017-Aug-15 23:30N 37°49' W 122°22'0 0.0
2017-Aug-15 22:57N 37°49' W 122°22'0 0.0
2017-Aug-15 22:27N 37°49' W 122°22'0 0.0
2017-Aug-15 21:54N 37°49' W 122°22'0 0.0
2017-Aug-15 21:30N 37°49' W 122°22'0 0.1
2017-Aug-15 21:00N 37°49' W 122°22'4 7.5
2017-Aug-15 20:31N 37°52' W 122°25'612.0
2017-Aug-15 20:00N 37°57' W 122°27'710.1
2017-Aug-15 19:15N 38°03' W 122°20'5 7.9
2017-Aug-15 18:34N 38°04' W 122°13'1 9.8
2017-Aug-15 18:30N 38°03' W 122°12'1 1.2
2017-Aug-15 17:36N 38°03' W 122°11'210.1
2017-Aug-15 17:27N 38°04' W 122°13'810.3
2017-Aug-15 16:42N 38°02' W 122°22'211.2
2017-Aug-15 16:30N 38°01' W 122°25'510.6
2017-Aug-15 16:00N 37°55' W 122°26'5 9.3
2017-Aug-15 15:30N 37°51' W 122°28'0 0.0
2017-Aug-15 14:58N 37°51' W 122°28'0 0.0
2017-Aug-15 14:22N 37°51' W 122°28'0 0.0
2017-Aug-15 13:58N 37°51' W 122°28'0 0.0
2017-Aug-15 13:28N 37°51' W 122°28'0 0.0
2017-Aug-15 12:58N 37°51' W 122°28'0 0.0
2017-Aug-15 12:28N 37°51' W 122°28'0 0.0
2017-Aug-15 11:58N 37°51' W 122°28'0 0.0
2017-Aug-15 11:28N 37°51' W 122°28'0 0.0
2017-Aug-15 10:58N 37°51' W 122°28'0 0.0
2017-Aug-15 10:28N 37°51' W 122°28'0 0.0
2017-Aug-15 09:58N 37°51' W 122°28'0 0.0
2017-Aug-15 09:28N 37°51' W 122°28'0 0.0
2017-Aug-15 08:58N 37°51' W 122°28'0 0.0
2017-Aug-15 08:29N 37°51' W 122°28'0 0.0
2017-Aug-15 07:58N 37°51' W 122°28'0 0.0
2017-Aug-15 07:29N 37°51' W 122°28'0 0.0
2017-Aug-15 06:59N 37°51' W 122°28'0 0.0
2017-Aug-15 06:29N 37°51' W 122°28'0 0.0
2017-Aug-15 05:59N 37°51' W 122°28'0 0.0
2017-Aug-15 05:29N 37°51' W 122°28'0 0.1
2017-Aug-15 04:58N 37°51' W 122°28'0 0.1
2017-Aug-15 04:26N 37°51' W 122°28'0 0.0
2017-Aug-15 03:58N 37°51' W 122°28'0 0.0
2017-Aug-15 03:28N 37°51' W 122°28'0 0.0
2017-Aug-15 03:00N 37°51' W 122°28'1 2.7
2017-Aug-15 02:30N 37°51' W 122°27'1 2.8
2017-Aug-15 02:00N 37°51' W 122°25'3 5.2
2017-Aug-15 01:30N 37°51' W 122°28'0 0.0
2017-Aug-15 01:00N 37°51' W 122°28'0 0.0
2017-Aug-15 00:30N 37°51' W 122°28'0 0.0
2017-Aug-15 00:00N 37°51' W 122°28'1 2.5
2017-Aug-14 23:30N 37°52' W 122°27'0 0.5
2017-Aug-14 23:00N 37°52' W 122°27'5 9.1
2017-Aug-14 22:30N 37°48' W 122°31'1810.4
2017-Aug-14 20:44N 37°57' W 122°52'310.5
2017-Aug-14 20:29N 37°59' W 122°54'18 8.6
2017-Aug-14 18:22N 37°50' W 122°34'3 8.8
2017-Aug-14 18:00N 37°48' W 122°31'510.6
2017-Aug-14 17:30N 37°49' W 122°24'2 3.5
2017-Aug-14 16:59N 37°49' W 122°22'0 0.0
2017-Aug-14 16:29N 37°49' W 122°22'0 0.0
2017-Aug-14 15:59N 37°49' W 122°22'0 0.0
2017-Aug-14 15:29N 37°49' W 122°22'0 0.0
2017-Aug-14 14:59N 37°49' W 122°22'0 0.0
2017-Aug-14 14:29N 37°49' W 122°22'0 0.0
2017-Aug-14 13:59N 37°49' W 122°22'0 0.0
2017-Aug-14 13:30N 37°49' W 122°22'0 0.0
2017-Aug-14 13:00N 37°49' W 122°22'0 0.0
2017-Aug-14 12:30N 37°49' W 122°22'0 0.0
2017-Aug-14 12:00N 37°49' W 122°22'0 0.0
2017-Aug-14 11:30N 37°49' W 122°22'0 0.0
2017-Aug-14 10:56N 37°49' W 122°22'0 0.0
2017-Aug-14 10:30N 37°49' W 122°22'0 0.0
2017-Aug-14 10:00N 37°49' W 122°22'0 0.0
2017-Aug-14 09:30N 37°49' W 122°22'0 0.0
2017-Aug-14 08:59N 37°49' W 122°22'0 0.0
2017-Aug-14 08:29N 37°49' W 122°22'0 0.0
2017-Aug-14 07:59N 37°49' W 122°22'0 0.0
2017-Aug-14 07:29N 37°49' W 122°22'0 0.0
2017-Aug-14 06:59N 37°49' W 122°22'0 0.0
2017-Aug-14 06:29N 37°49' W 122°22'0 0.0
2017-Aug-14 05:59N 37°49' W 122°22'0 0.0
2017-Aug-14 05:29N 37°49' W 122°22'0 0.0
2017-Aug-14 04:53N 37°49' W 122°22'0 0.0
2017-Aug-14 04:29N 37°49' W 122°22'0 0.0
2017-Aug-14 03:59N 37°49' W 122°22'0 0.0
2017-Aug-14 03:29N 37°49' W 122°22'0 0.0
2017-Aug-14 02:59N 37°49' W 122°22'0 0.0
2017-Aug-14 02:26N 37°49' W 122°22'0 0.0
2017-Aug-14 01:59N 37°49' W 122°22'0 0.0
2017-Aug-14 01:30N 37°49' W 122°22'0 0.0
2017-Aug-14 01:00N 37°49' W 122°22'0 0.0
2017-Aug-14 00:30N 37°49' W 122°22'0 0.0
2017-Aug-13 23:56N 37°49' W 122°22'0 0.0
2017-Aug-13 23:30N 37°49' W 122°22'0 0.0
2017-Aug-13 22:59N 37°49' W 122°22'0 0.0
2017-Aug-13 22:29N 37°49' W 122°22'0 0.0
2017-Aug-13 21:57N 37°49' W 122°22'0 0.0
2017-Aug-13 21:29N 37°49' W 122°22'0 0.0
2017-Aug-13 20:59N 37°49' W 122°22'0 0.0
2017-Aug-13 20:29N 37°49' W 122°22'0 0.0
2017-Aug-13 19:53N 37°49' W 122°22'0 0.0
2017-Aug-13 19:29N 37°49' W 122°22'0 0.0
2017-Aug-13 18:56N 37°49' W 122°22'0 0.0
2017-Aug-13 18:30N 37°49' W 122°22'0 0.0
2017-Aug-13 18:00N 37°49' W 122°22'0 0.0
2017-Aug-13 17:30N 37°49' W 122°22'0 0.0
2017-Aug-13 17:00N 37°49' W 122°22'0 0.0
2017-Aug-13 16:30N 37°49' W 122°22'0 0.0
2017-Aug-13 16:00N 37°49' W 122°22'0 0.0
2017-Aug-13 15:30N 37°49' W 122°22'0 0.0
2017-Aug-13 14:59N 37°49' W 122°22'0 0.0
2017-Aug-13 14:29N 37°49' W 122°22'0 0.0
2017-Aug-13 13:59N 37°49' W 122°22'0 0.0
2017-Aug-13 13:29N 37°49' W 122°22'0 0.0
2017-Aug-13 12:59N 37°49' W 122°22'0 0.0
2017-Aug-13 12:20N 37°49' W 122°22'0 0.0
2017-Aug-13 11:59N 37°49' W 122°22'0 0.0
2017-Aug-13 11:29N 37°49' W 122°22'0 0.0
2017-Aug-13 10:56N 37°49' W 122°22'0 0.0
2017-Aug-13 10:29N 37°49' W 122°22'0 0.0
2017-Aug-13 09:59N 37°49' W 122°22'0 0.0
2017-Aug-13 09:29N 37°49' W 122°22'0 0.0
2017-Aug-13 08:59N 37°49' W 122°22'0 0.0
2017-Aug-13 08:29N 37°49' W 122°22'0 0.0
2017-Aug-13 07:56N 37°49' W 122°22'0 0.0
2017-Aug-13 07:30N 37°49' W 122°22'0 0.0
2017-Aug-13 07:00N 37°49' W 122°22'0 0.0
2017-Aug-13 06:30N 37°49' W 122°22'0 0.0
2017-Aug-13 06:00N 37°49' W 122°22'0 0.0
2017-Aug-13 05:30N 37°49' W 122°22'0 0.0
2017-Aug-13 04:59N 37°49' W 122°22'0 0.0
2017-Aug-13 04:29N 37°49' W 122°22'0 0.0
2017-Aug-13 03:57N 37°49' W 122°22'0 0.0
2017-Aug-13 03:27N 37°49' W 122°22'0 0.0
2017-Aug-13 02:59N 37°49' W 122°22'0 0.0
2017-Aug-13 02:29N 37°49' W 122°22'0 0.0
2017-Aug-13 01:59N 37°49' W 122°22'0 0.0
2017-Aug-13 01:29N 37°49' W 122°22'0 0.0
2017-Aug-13 00:59N 37°49' W 122°22'0 0.0
2017-Aug-13 00:29N 37°49' W 122°22'0 0.0
2017-Aug-12 23:54N 37°49' W 122°22'0 0.0
2017-Aug-12 23:30N 37°49' W 122°22'0 0.0
2017-Aug-12 23:00N 37°49' W 122°22'0 0.0
2017-Aug-12 22:18N 37°49' W 122°22'0 0.0
2017-Aug-12 21:57N 37°49' W 122°22'0 0.0
2017-Aug-12 21:30N 37°49' W 122°22'0 0.0
2017-Aug-12 20:59N 37°49' W 122°22'0 0.0
2017-Aug-12 20:29N 37°49' W 122°22'0 0.0
2017-Aug-12 19:53N 37°49' W 122°22'0 0.0
2017-Aug-12 19:23N 37°49' W 122°22'0 0.0
2017-Aug-12 18:59N 37°49' W 122°22'0 0.0
2017-Aug-12 18:29N 37°49' W 122°22'0 0.0
2017-Aug-12 17:59N 37°49' W 122°22'0 0.0
2017-Aug-12 17:29N 37°49' W 122°22'0 0.0
2017-Aug-12 16:59N 37°49' W 122°22'0 0.0
2017-Aug-12 16:29N 37°49' W 122°22'0 0.0
2017-Aug-12 15:59N 37°49' W 122°22'0 0.0
2017-Aug-12 15:29N 37°49' W 122°22'0 0.0
2017-Aug-12 15:00N 37°49' W 122°22'0 0.0
2017-Aug-12 14:30N 37°49' W 122°22'0 0.0
2017-Aug-12 14:00N 37°49' W 122°22'0 0.0
2017-Aug-12 13:30N 37°49' W 122°22'0 0.0
2017-Aug-12 13:00N 37°49' W 122°22'0 0.0
2017-Aug-12 12:30N 37°49' W 122°22'0 0.0
2017-Aug-12 12:00N 37°49' W 122°22'0 0.0
2017-Aug-12 11:30N 37°49' W 122°22'0 0.0
2017-Aug-12 11:00N 37°49' W 122°22'0 0.0
2017-Aug-12 10:24N 37°49' W 122°22'0 0.0
2017-Aug-12 10:00N 37°49' W 122°22'0 0.0
2017-Aug-12 09:29N 37°49' W 122°22'0 0.0
2017-Aug-12 08:59N 37°49' W 122°22'0 0.0
2017-Aug-12 08:29N 37°49' W 122°22'0 0.0
2017-Aug-12 07:56N 37°49' W 122°22'0 0.0
2017-Aug-12 07:29N 37°49' W 122°22'0 0.0
2017-Aug-12 06:56N 37°49' W 122°22'0 0.0
2017-Aug-12 06:29N 37°49' W 122°22'0 0.0
2017-Aug-12 05:59N 37°49' W 122°22'0 0.0
2017-Aug-12 05:30N 37°49' W 122°22'0 0.0
2017-Aug-12 04:57N 37°49' W 122°22'0 0.0
2017-Aug-12 04:30N 37°49' W 122°22'0 0.0
2017-Aug-12 03:57N 37°49' W 122°22'0 0.0
2017-Aug-12 03:30N 37°49' W 122°22'0 0.0
2017-Aug-12 03:00N 37°49' W 122°22'0 0.0
2017-Aug-12 02:30N 37°49' W 122°22'0 0.0
2017-Aug-12 01:57N 37°49' W 122°22'0 0.0
2017-Aug-12 01:29N 37°49' W 122°22'0 0.0
2017-Aug-12 00:59N 37°49' W 122°22'0 0.0
2017-Aug-12 00:26N 37°49' W 122°22'0 0.0
2017-Aug-11 23:59N 37°49' W 122°22'0 0.0
2017-Aug-11 23:29N 37°49' W 122°22'0 0.0
2017-Aug-11 22:59N 37°49' W 122°22'0 0.0
2017-Aug-11 22:29N 37°49' W 122°22'0 0.0
2017-Aug-11 21:59N 37°49' W 122°22'0 0.0
2017-Aug-11 21:30N 37°49' W 122°22'0 0.0
2017-Aug-11 20:57N 37°49' W 122°22'0 0.0
2017-Aug-11 20:30N 37°49' W 122°22'0 0.0
2017-Aug-11 20:00N 37°49' W 122°22'0 0.0
2017-Aug-11 19:27N 37°49' W 122°22'0 0.0
2017-Aug-11 19:00N 37°49' W 122°22'0 0.0
2017-Aug-11 18:30N 37°49' W 122°22'0 0.0
2017-Aug-11 17:57N 37°49' W 122°22'0 0.0
2017-Aug-11 17:24N 37°49' W 122°22'0 0.0
2017-Aug-11 17:00N 37°49' W 122°22'0 0.0
2017-Aug-11 16:29N 37°49' W 122°22'0 0.0
2017-Aug-11 15:59N 37°49' W 122°22'0 0.0
2017-Aug-11 15:29N 37°49' W 122°22'0 0.0
2017-Aug-11 14:59N 37°49' W 122°22'0 0.0
2017-Aug-11 13:56N 37°49' W 122°22'0 0.0
2017-Aug-11 13:26N 37°49' W 122°22'0 0.0
2017-Aug-11 12:59N 37°49' W 122°22'0 0.0
2017-Aug-11 12:29N 37°49' W 122°22'0 0.0
2017-Aug-11 11:57N 37°49' W 122°22'0 0.0
2017-Aug-11 11:29N 37°49' W 122°22'0 0.0
2017-Aug-11 11:00N 37°49' W 122°22'0 0.0
2017-Aug-11 10:30N 37°49' W 122°22'0 0.0
2017-Aug-11 10:00N 37°49' W 122°22'0 0.0
2017-Aug-11 09:30N 37°49' W 122°22'0 0.0
2017-Aug-11 08:57N 37°49' W 122°22'0 0.0
2017-Aug-11 08:30N 37°49' W 122°22'0 0.0
2017-Aug-11 08:00N 37°49' W 122°22'0 0.0
2017-Aug-11 07:24N 37°49' W 122°22'0 0.0
2017-Aug-11 06:56N 37°49' W 122°22'0 0.0
2017-Aug-11 06:30N 37°49' W 122°22'0 0.0
2017-Aug-11 06:00N 37°49' W 122°22'0 0.0
2017-Aug-11 05:26N 37°49' W 122°22'0 0.0
2017-Aug-11 04:59N 37°49' W 122°22'0 0.0
2017-Aug-11 04:29N 37°49' W 122°22'0 0.0
2017-Aug-11 03:59N 37°49' W 122°22'0 0.0
2017-Aug-11 03:29N 37°49' W 122°22'0 0.0
2017-Aug-11 02:59N 37°49' W 122°22'0 0.0
2017-Aug-11 02:29N 37°49' W 122°22'0 0.0
2017-Aug-11 01:59N 37°49' W 122°22'0 0.0
2017-Aug-11 01:30N 37°49' W 122°22'0 0.0
2017-Aug-11 01:00N 37°49' W 122°22'0 0.0
2017-Aug-11 00:27N 37°49' W 122°22'0 0.0
2017-Aug-10 23:44N 37°49' W 122°22'0 0.0
2017-Aug-10 23:30N 37°49' W 122°22'0 0.0
2017-Aug-10 22:56N 37°49' W 122°22'0 0.0
2017-Aug-10 22:30N 37°49' W 122°22'0 0.0
2017-Aug-10 22:00N 37°49' W 122°22'0 0.0
2017-Aug-10 21:30N 37°49' W 122°22'0 0.0
2017-Aug-10 21:00N 37°49' W 122°22'0 0.0
2017-Aug-10 20:30N 37°49' W 122°22'0 0.0
2017-Aug-10 19:59N 37°49' W 122°22'0 0.0
2017-Aug-10 19:29N 37°49' W 122°22'0 0.0
2017-Aug-10 18:59N 37°49' W 122°22'0 0.0
2017-Aug-10 18:29N 37°49' W 122°22'0 0.0
2017-Aug-10 17:59N 37°49' W 122°22'0 0.0
2017-Aug-10 17:29N 37°49' W 122°22'0 0.0
2017-Aug-10 16:53N 37°49' W 122°22'0 0.0
2017-Aug-10 16:29N 37°49' W 122°22'0 0.0
2017-Aug-10 15:59N 37°49' W 122°22'0 0.0
2017-Aug-10 15:26N 37°49' W 122°22'0 0.0
2017-Aug-10 14:59N 37°49' W 122°22'0 0.0
2017-Aug-10 14:20N 37°49' W 122°22'0 0.0
2017-Aug-10 13:56N 37°49' W 122°22'0 0.0
2017-Aug-10 13:30N 37°49' W 122°22'0 0.0
2017-Aug-10 13:00N 37°49' W 122°22'0 0.0
2017-Aug-10 12:30N 37°49' W 122°22'0 0.0
2017-Aug-10 11:57N 37°49' W 122°22'0 0.0
2017-Aug-10 11:27N 37°49' W 122°22'0 0.0
2017-Aug-10 11:00N 37°49' W 122°22'0 0.0
2017-Aug-10 10:30N 37°49' W 122°22'0 0.0
2017-Aug-10 09:57N 37°49' W 122°22'0 0.0
2017-Aug-10 09:29N 37°49' W 122°22'0 0.0
2017-Aug-10 09:00N 37°49' W 122°22'0 0.0
2017-Aug-10 08:30N 37°49' W 122°22'0 0.0
2017-Aug-10 07:59N 37°49' W 122°22'0 0.0
2017-Aug-10 07:29N 37°49' W 122°22'0 0.0
2017-Aug-10 06:59N 37°49' W 122°22'0 0.0
2017-Aug-10 06:23N 37°49' W 122°22'0 0.0
2017-Aug-10 06:00N 37°49' W 122°22'0 0.0
2017-Aug-10 05:30N 37°49' W 122°22'0 0.0
2017-Aug-10 05:00N 37°49' W 122°22'0 0.0
2017-Aug-10 04:30N 37°49' W 122°22'0 0.0
2017-Aug-10 04:00N 37°49' W 122°22'0 0.0
2017-Aug-10 03:30N 37°49' W 122°22'0 0.0
2017-Aug-10 03:00N 37°49' W 122°22'0 0.0
2017-Aug-10 02:30N 37°49' W 122°22'0 0.0
2017-Aug-10 01:59N 37°49' W 122°22'0 0.0
2017-Aug-10 01:30N 37°49' W 122°22'0 0.0
2017-Aug-10 00:53N 37°49' W 122°22'0 0.0
2017-Aug-10 00:29N 37°49' W 122°22'0 0.0
2017-Aug-09 23:59N 37°49' W 122°22'0 0.0
2017-Aug-09 23:17N 37°49' W 122°22'0 0.0
2017-Aug-09 22:59N 37°49' W 122°22'0 0.0
2017-Aug-09 22:29N 37°49' W 122°22'0 0.0
2017-Aug-09 21:59N 37°49' W 122°22'0 0.0
2017-Aug-09 21:29N 37°49' W 122°22'0 0.0
2017-Aug-09 21:00N 37°49' W 122°22'0 0.0
2017-Aug-09 20:30N 37°49' W 122°22'0 0.0
2017-Aug-09 19:56N 37°49' W 122°22'0 0.0
2017-Aug-09 19:30N 37°49' W 122°22'0 0.0
2017-Aug-09 19:00N 37°49' W 122°22'0 0.0
2017-Aug-09 18:24N 37°49' W 122°22'0 0.0
2017-Aug-09 17:54N 37°49' W 122°22'0 0.0
2017-Aug-09 17:27N 37°49' W 122°22'0 0.0
2017-Aug-09 17:00N 37°49' W 122°22'0 0.0
2017-Aug-09 16:30N 37°49' W 122°22'0 0.0
2017-Aug-09 16:00N 37°49' W 122°22'0 0.0
2017-Aug-09 15:30N 37°49' W 122°22'0 0.0
2017-Aug-09 14:51N 37°49' W 122°22'0 0.0
2017-Aug-09 14:29N 37°49' W 122°22'0 0.0
2017-Aug-09 13:59N 37°49' W 122°22'0 0.0
2017-Aug-09 13:27N 37°49' W 122°22'0 0.0
2017-Aug-09 12:59N 37°49' W 122°22'0 0.0
2017-Aug-09 12:29N 37°49' W 122°22'0 0.0
2017-Aug-09 11:59N 37°49' W 122°22'0 0.0
2017-Aug-09 11:29N 37°49' W 122°22'0 0.0
2017-Aug-09 11:00N 37°49' W 122°22'0 0.0
2017-Aug-09 10:30N 37°49' W 122°22'0 0.0
2017-Aug-09 10:00N 37°49' W 122°22'0 0.0
2017-Aug-09 09:30N 37°49' W 122°22'0 0.0
2017-Aug-09 09:00N 37°49' W 122°22'0 0.0
2017-Aug-09 08:30N 37°49' W 122°22'0 0.0
2017-Aug-09 08:00N 37°49' W 122°22'0 0.0
2017-Aug-09 07:30N 37°49' W 122°22'0 0.0
2017-Aug-09 07:00N 37°49' W 122°22'0 0.0
2017-Aug-09 06:30N 37°49' W 122°22'0 0.0
2017-Aug-09 06:00N 37°49' W 122°22'0 0.0
2017-Aug-09 05:30N 37°49' W 122°22'0 0.0
2017-Aug-09 05:00N 37°49' W 122°22'0 0.0
2017-Aug-09 04:30N 37°49' W 122°22'0 0.0
2017-Aug-09 04:00N 37°49' W 122°22'0 0.0
2017-Aug-09 03:30N 37°49' W 122°22'0 0.0
2017-Aug-09 02:59N 37°49' W 122°22'0 0.0
2017-Aug-09 02:26N 37°49' W 122°22'0 0.0
2017-Aug-09 01:57N 37°49' W 122°22'0 0.0
2017-Aug-09 01:30N 37°49' W 122°22'0 0.0
2017-Aug-09 01:00N 37°49' W 122°22'0 0.0
2017-Aug-09 00:30N 37°49' W 122°22'0 0.0
2017-Aug-09 00:00N 37°49' W 122°22'0 0.0
2017-Aug-08 23:30N 37°49' W 122°22'0 0.0
2017-Aug-08 23:00N 37°49' W 122°22'0 0.0
2017-Aug-08 22:30N 37°49' W 122°22'0 0.0
2017-Aug-08 22:00N 37°49' W 122°22'0 0.0
2017-Aug-08 21:30N 37°49' W 122°22'0 0.0
2017-Aug-08 21:00N 37°49' W 122°22'0 0.0
2017-Aug-08 20:30N 37°49' W 122°22'0 0.0
2017-Aug-08 20:00N 37°49' W 122°22'0 0.0
2017-Aug-08 19:30N 37°49' W 122°22'0 0.0
2017-Aug-08 18:54N 37°49' W 122°22'0 0.0
2017-Aug-08 18:30N 37°49' W 122°22'0 0.0
2017-Aug-08 18:00N 37°49' W 122°22'0 0.0
2017-Aug-08 17:11N 37°49' W 122°22'0 0.0
2017-Aug-08 16:59N 37°49' W 122°22'0 0.0
2017-Aug-08 16:29N 37°49' W 122°22'0 0.0
2017-Aug-08 15:53N 37°49' W 122°22'0 0.0
2017-Aug-08 15:29N 37°49' W 122°22'0 0.0
2017-Aug-08 15:00N 37°49' W 122°22'0 0.0
2017-Aug-08 14:26N 37°49' W 122°22'0 0.0
2017-Aug-08 14:00N 37°49' W 122°22'0 0.0
2017-Aug-08 13:30N 37°49' W 122°22'0 0.0
2017-Aug-08 13:00N 37°49' W 122°22'0 0.0
2017-Aug-08 12:30N 37°49' W 122°22'0 0.0
2017-Aug-08 12:00N 37°49' W 122°22'0 0.0
2017-Aug-08 11:29N 37°49' W 122°22'0 0.0
2017-Aug-08 10:59N 37°49' W 122°22'0 0.0
2017-Aug-08 10:27N 37°49' W 122°22'0 0.0
2017-Aug-08 09:59N 37°49' W 122°22'0 0.0
2017-Aug-08 09:30N 37°49' W 122°22'0 0.0
2017-Aug-08 09:00N 37°49' W 122°22'0 0.0
2017-Aug-08 08:30N 37°49' W 122°22'0 0.0
2017-Aug-08 07:54N 37°49' W 122°22'0 0.0
2017-Aug-08 07:30N 37°49' W 122°22'0 0.0
2017-Aug-08 06:54N 37°49' W 122°22'0 0.0
2017-Aug-08 06:30N 37°49' W 122°22'0 0.0
2017-Aug-08 06:00N 37°49' W 122°22'0 0.0
2017-Aug-08 05:30N 37°49' W 122°22'0 0.0
2017-Aug-08 04:56N 37°49' W 122°22'0 0.0
2017-Aug-08 04:30N 37°49' W 122°22'0 0.0
2017-Aug-08 03:59N 37°49' W 122°22'0 0.0
2017-Aug-08 03:23N 37°49' W 122°22'0 0.0
2017-Aug-08 02:59N 37°49' W 122°22'0 0.0
2017-Aug-08 02:29N 37°49' W 122°22'0 0.0
2017-Aug-08 01:59N 37°49' W 122°22'0 0.0
2017-Aug-08 01:30N 37°49' W 122°22'0 0.0
2017-Aug-08 01:00N 37°49' W 122°22'0 0.0
2017-Aug-08 00:24N 37°49' W 122°22'0 0.0
2017-Aug-08 00:00N 37°49' W 122°22'0 0.0
2017-Aug-07 23:30N 37°49' W 122°22'0 0.0
2017-Aug-07 23:00N 37°49' W 122°22'0 0.0
2017-Aug-07 22:12N 37°49' W 122°22'0 0.0
2017-Aug-07 22:00N 37°49' W 122°22'0 0.0
2017-Aug-07 21:27N 37°49' W 122°22'0 0.0
2017-Aug-07 21:00N 37°49' W 122°22'0 0.0
2017-Aug-07 20:30N 37°49' W 122°22'0 0.0
2017-Aug-07 20:00N 37°49' W 122°22'0 0.0
2017-Aug-07 19:30N 37°49' W 122°22'0 0.0
2017-Aug-07 18:59N 37°49' W 122°22'0 0.0
2017-Aug-07 18:23N 37°49' W 122°22'0 0.0
2017-Aug-07 17:56N 37°49' W 122°22'0 0.0
2017-Aug-07 17:29N 37°49' W 122°22'0 0.0
2017-Aug-07 17:00N 37°49' W 122°22'0 0.0
2017-Aug-07 16:26N 37°49' W 122°22'0 0.0
2017-Aug-07 15:57N 37°49' W 122°22'0 0.0
2017-Aug-07 15:30N 37°49' W 122°22'0 0.0
2017-Aug-07 15:00N 37°49' W 122°22'0 0.0
2017-Aug-07 14:30N 37°49' W 122°22'0 0.0
2017-Aug-07 13:57N 37°49' W 122°22'0 0.0
2017-Aug-07 13:30N 37°49' W 122°22'0 0.0
2017-Aug-07 13:00N 37°49' W 122°22'0 0.0
2017-Aug-07 12:30N 37°49' W 122°22'0 0.0
2017-Aug-07 11:57N 37°49' W 122°22'0 0.0
2017-Aug-07 11:30N 37°49' W 122°22'0 0.0
2017-Aug-07 11:00N 37°49' W 122°22'0 0.0
2017-Aug-07 10:29N 37°49' W 122°22'0 0.0
2017-Aug-07 09:59N 37°49' W 122°22'0 0.0
2017-Aug-07 09:29N 37°49' W 122°22'0 0.0
2017-Aug-07 08:59N 37°49' W 122°22'0 0.0
2017-Aug-07 08:29N 37°49' W 122°22'0 0.0
2017-Aug-07 08:00N 37°49' W 122°22'0 0.0
2017-Aug-07 07:30N 37°49' W 122°22'0 0.0
2017-Aug-07 06:54N 37°49' W 122°22'0 0.0
2017-Aug-07 06:30N 37°49' W 122°22'0 0.0
2017-Aug-07 06:00N 37°49' W 122°22'0 0.0
2017-Aug-07 05:30N 37°49' W 122°22'0 0.0
2017-Aug-07 04:57N 37°49' W 122°22'0 0.0
2017-Aug-07 04:30N 37°49' W 122°22'0 0.0
2017-Aug-07 04:00N 37°49' W 122°22'0 0.0
2017-Aug-07 03:30N 37°49' W 122°22'0 0.0
2017-Aug-07 03:00N 37°49' W 122°22'0 0.0
2017-Aug-07 02:30N 37°49' W 122°22'0 0.0
2017-Aug-07 02:00N 37°49' W 122°22'0 0.0
2017-Aug-07 01:24N 37°49' W 122°22'0 0.0
2017-Aug-07 01:00N 37°49' W 122°22'0 0.0
2017-Aug-07 00:30N 37°49' W 122°22'0 0.0
2017-Aug-06 23:59N 37°49' W 122°22'  
Track history (hours):
 
Tides and Currents Weather Stations Pressure Air Temp Water Temp Dewpoint Dewpoint Depression Visibility Wind Speed Wind Dir Waves Ship Positions

USCGC Tern

Last reported at 2017-Aug-16 23:30 UTC. Time now 2017-Aug-16 23:45 UTC.
Position N 37°50' W 122°34'.

Length 26 m; draft 1.7 m.

Type: SAR. MMSI: 366999711.

Date/timePositionNaut miles runAvg speedWind from/ knotsBaromVisibWave heightAir tempDewpointWater temp
2017-Aug-16 23:30N 37°50' W 122°34'611.3
2017-Aug-16 23:00N 37°51' W 122°41'2 3.8
2017-Aug-16 22:28N 37°52' W 122°43'0 0.4
2017-Aug-16 22:00N 37°52' W 122°43'0 0.2
2017-Aug-16 21:29N 37°53' W 122°43'3 5.1
2017-Aug-16 21:00N 37°54' W 122°46'5 9.5
2017-Aug-16 20:30N 37°56' W 122°51'4 8.8
2017-Aug-16 20:00N 37°58' W 122°56'2 4.4
2017-Aug-16 19:30N 37°57' W 122°54'8 9.0
2017-Aug-16 18:38N 37°53' W 122°46'210.0
2017-Aug-16 18:24N 37°52' W 122°43'1 1.6
2017-Aug-16 17:48N 37°52' W 122°42'1 3.0
2017-Aug-16 17:27N 37°51' W 122°42'2 2.8
2017-Aug-16 16:33N 37°48' W 122°42'1 5.1
2017-Aug-16 16:26N 37°49' W 122°42'3 6.1
2017-Aug-16 16:00N 37°50' W 122°39'612.2
2017-Aug-16 15:30N 37°49' W 122°32'816.0
2017-Aug-16 15:00N 37°49' W 122°22'0 0.3
2017-Aug-16 14:30N 37°49' W 122°22'0 0.0
2017-Aug-16 14:00N 37°49' W 122°22'0 0.0
2017-Aug-16 13:28N 37°49' W 122°22'0 0.0
2017-Aug-16 13:00N 37°49' W 122°22'0 0.0
2017-Aug-16 12:30N 37°49' W 122°22'0 0.0
2017-Aug-16 12:00N 37°49' W 122°22'0 0.0
2017-Aug-16 11:28N 37°49' W 122°22'0 0.0
2017-Aug-16 10:57N 37°49' W 122°22'0 0.0
2017-Aug-16 10:24N 37°49' W 122°22'0 0.0
2017-Aug-16 10:00N 37°49' W 122°22'0 0.0
2017-Aug-16 09:24N 37°49' W 122°22'0 0.0
2017-Aug-16 08:57N 37°49' W 122°22'0 0.0
2017-Aug-16 08:30N 37°49' W 122°22'0 0.0
2017-Aug-16 08:00N 37°49' W 122°22'0 0.0
2017-Aug-16 07:30N 37°49' W 122°22'0 0.0
2017-Aug-16 06:54N 37°49' W 122°22'0 0.0
2017-Aug-16 06:30N 37°49' W 122°22'0 0.0
2017-Aug-16 06:00N 37°49' W 122°22'0 0.0
2017-Aug-16 05:30N 37°49' W 122°22'0 0.0
2017-Aug-16 04:57N 37°49' W 122°22'0 0.0
2017-Aug-16 04:27N 37°49' W 122°22'0 0.0
2017-Aug-16 04:00N 37°49' W 122°22'0 0.0
2017-Aug-16 03:27N 37°49' W 122°22'0 0.0
2017-Aug-16 02:57N 37°49' W 122°22'0 0.0
2017-Aug-16 02:30N 37°49' W 122°22'0 0.0
2017-Aug-16 01:57N 37°49' W 122°22'0 0.0
2017-Aug-16 01:30N 37°49' W 122°22'0 0.0
2017-Aug-16 00:57N 37°49' W 122°22'0 0.0
2017-Aug-16 00:30N 37°49' W 122°22'0 0.0
2017-Aug-15 23:57N 37°49' W 122°22'0 0.0
2017-Aug-15 23:30N 37°49' W 122°22'0 0.0
2017-Aug-15 22:57N 37°49' W 122°22'0 0.0
2017-Aug-15 22:27N 37°49' W 122°22'0 0.0
2017-Aug-15 21:54N 37°49' W 122°22'0 0.0
2017-Aug-15 21:30N 37°49' W 122°22'0 0.1
2017-Aug-15 21:00N 37°49' W 122°22'4 7.5
2017-Aug-15 20:31N 37°52' W 122°25'612.0
2017-Aug-15 20:00N 37°57' W 122°27'710.1
2017-Aug-15 19:15N 38°03' W 122°20'5 7.9
2017-Aug-15 18:34N 38°04' W 122°13'1 9.8
2017-Aug-15 18:30N 38°03' W 122°12'1 1.2
2017-Aug-15 17:36N 38°03' W 122°11'210.1
2017-Aug-15 17:27N 38°04' W 122°13'810.3
2017-Aug-15 16:42N 38°02' W 122°22'211.2
2017-Aug-15 16:30N 38°01' W 122°25'510.6
2017-Aug-15 16:00N 37°55' W 122°26'5 9.3
2017-Aug-15 15:30N 37°51' W 122°28'0 0.0
2017-Aug-15 14:58N 37°51' W 122°28'0 0.0
2017-Aug-15 14:22N 37°51' W 122°28'0 0.0
2017-Aug-15 13:58N 37°51' W 122°28'0 0.0
2017-Aug-15 13:28N 37°51' W 122°28'0 0.0
2017-Aug-15 12:58N 37°51' W 122°28'0 0.0
2017-Aug-15 12:28N 37°51' W 122°28'0 0.0
2017-Aug-15 11:58N 37°51' W 122°28'0 0.0
2017-Aug-15 11:28N 37°51' W 122°28'0 0.0
2017-Aug-15 10:58N 37°51' W 122°28'0 0.0
2017-Aug-15 10:28N 37°51' W 122°28'0 0.0
2017-Aug-15 09:58N 37°51' W 122°28'0 0.0
2017-Aug-15 09:28N 37°51' W 122°28'0 0.0
2017-Aug-15 08:58N 37°51' W 122°28'0 0.0
2017-Aug-15 08:29N 37°51' W 122°28'0 0.0
2017-Aug-15 07:58N 37°51' W 122°28'0 0.0
2017-Aug-15 07:29N 37°51' W 122°28'0 0.0
2017-Aug-15 06:59N 37°51' W 122°28'0 0.0
2017-Aug-15 06:29N 37°51' W 122°28'0 0.0
2017-Aug-15 05:59N 37°51' W 122°28'0 0.0
2017-Aug-15 05:29N 37°51' W 122°28'0 0.1
2017-Aug-15 04:58N 37°51' W 122°28'0 0.1
2017-Aug-15 04:26N 37°51' W 122°28'0 0.0
2017-Aug-15 03:58N 37°51' W 122°28'0 0.0
2017-Aug-15 03:28N 37°51' W 122°28'0 0.0
2017-Aug-15 03:00N 37°51' W 122°28'1 2.7
2017-Aug-15 02:30N 37°51' W 122°27'1 2.8
2017-Aug-15 02:00N 37°51' W 122°25'3 5.2
2017-Aug-15 01:30N 37°51' W 122°28'0 0.0
2017-Aug-15 01:00N 37°51' W 122°28'0 0.0
2017-Aug-15 00:30N 37°51' W 122°28'0 0.0
2017-Aug-15 00:00N 37°51' W 122°28'1 2.5
2017-Aug-14 23:30N 37°52' W 122°27'0 0.5
2017-Aug-14 23:00N 37°52' W 122°27'5 9.1
2017-Aug-14 22:30N 37°48' W 122°31'1810.4
2017-Aug-14 20:44N 37°57' W 122°52'310.5
2017-Aug-14 20:29N 37°59' W 122°54'18 8.6
2017-Aug-14 18:22N 37°50' W 122°34'3 8.8
2017-Aug-14 18:00N 37°48' W 122°31'510.6
2017-Aug-14 17:30N 37°49' W 122°24'2 3.5
2017-Aug-14 16:59N 37°49' W 122°22'0 0.0
2017-Aug-14 16:29N 37°49' W 122°22'0 0.0
2017-Aug-14 15:59N 37°49' W 122°22'0 0.0
2017-Aug-14 15:29N 37°49' W 122°22'0 0.0
2017-Aug-14 14:59N 37°49' W 122°22'0 0.0
2017-Aug-14 14:29N 37°49' W 122°22'0 0.0
2017-Aug-14 13:59N 37°49' W 122°22'0 0.0
2017-Aug-14 13:30N 37°49' W 122°22'0 0.0
2017-Aug-14 13:00N 37°49' W 122°22'0 0.0
2017-Aug-14 12:30N 37°49' W 122°22'0 0.0
2017-Aug-14 12:00N 37°49' W 122°22'0 0.0
2017-Aug-14 11:30N 37°49' W 122°22'0 0.0
2017-Aug-14 10:56N 37°49' W 122°22'0 0.0
2017-Aug-14 10:30N 37°49' W 122°22'0 0.0
2017-Aug-14 10:00N 37°49' W 122°22'0 0.0
2017-Aug-14 09:30N 37°49' W 122°22'0 0.0
2017-Aug-14 08:59N 37°49' W 122°22'0 0.0
2017-Aug-14 08:29N 37°49' W 122°22'0 0.0
2017-Aug-14 07:59N 37°49' W 122°22'0 0.0
2017-Aug-14 07:29N 37°49' W 122°22'0 0.0
2017-Aug-14 06:59N 37°49' W 122°22'0 0.0
2017-Aug-14 06:29N 37°49' W 122°22'0 0.0
2017-Aug-14 05:59N 37°49' W 122°22'0 0.0
2017-Aug-14 05:29N 37°49' W 122°22'0 0.0
2017-Aug-14 04:53N 37°49' W 122°22'0 0.0
2017-Aug-14 04:29N 37°49' W 122°22'0 0.0
2017-Aug-14 03:59N 37°49' W 122°22'0 0.0
2017-Aug-14 03:29N 37°49' W 122°22'0 0.0
2017-Aug-14 02:59N 37°49' W 122°22'0 0.0
2017-Aug-14 02:26N 37°49' W 122°22'0 0.0
2017-Aug-14 01:59N 37°49' W 122°22'0 0.0
2017-Aug-14 01:30N 37°49' W 122°22'0 0.0
2017-Aug-14 01:00N 37°49' W 122°22'0 0.0
2017-Aug-14 00:30N 37°49' W 122°22'0 0.0
2017-Aug-13 23:56N 37°49' W 122°22'0 0.0
2017-Aug-13 23:30N 37°49' W 122°22'0 0.0
2017-Aug-13 22:59N 37°49' W 122°22'0 0.0
2017-Aug-13 22:29N 37°49' W 122°22'0 0.0
2017-Aug-13 21:57N 37°49' W 122°22'0 0.0
2017-Aug-13 21:29N 37°49' W 122°22'0 0.0
2017-Aug-13 20:59N 37°49' W 122°22'0 0.0
2017-Aug-13 20:29N 37°49' W 122°22'0 0.0
2017-Aug-13 19:53N 37°49' W 122°22'0 0.0
2017-Aug-13 19:29N 37°49' W 122°22'0 0.0
2017-Aug-13 18:56N 37°49' W 122°22'0 0.0
2017-Aug-13 18:30N 37°49' W 122°22'0 0.0
2017-Aug-13 18:00N 37°49' W 122°22'0 0.0
2017-Aug-13 17:30N 37°49' W 122°22'0 0.0
2017-Aug-13 17:00N 37°49' W 122°22'0 0.0
2017-Aug-13 16:30N 37°49' W 122°22'0 0.0
2017-Aug-13 16:00N 37°49' W 122°22'0 0.0
2017-Aug-13 15:30N 37°49' W 122°22'0 0.0
2017-Aug-13 14:59N 37°49' W 122°22'0 0.0
2017-Aug-13 14:29N 37°49' W 122°22'0 0.0
2017-Aug-13 13:59N 37°49' W 122°22'0 0.0
2017-Aug-13 13:29N 37°49' W 122°22'0 0.0
2017-Aug-13 12:59N 37°49' W 122°22'0 0.0
2017-Aug-13 12:20N 37°49' W 122°22'0 0.0
2017-Aug-13 11:59N 37°49' W 122°22'0 0.0
2017-Aug-13 11:29N 37°49' W 122°22'0 0.0
2017-Aug-13 10:56N 37°49' W 122°22'0 0.0
2017-Aug-13 10:29N 37°49' W 122°22'0 0.0
2017-Aug-13 09:59N 37°49' W 122°22'0 0.0
2017-Aug-13 09:29N 37°49' W 122°22'0 0.0
2017-Aug-13 08:59N 37°49' W 122°22'0 0.0
2017-Aug-13 08:29N 37°49' W 122°22'0 0.0
2017-Aug-13 07:56N 37°49' W 122°22'0 0.0
2017-Aug-13 07:30N 37°49' W 122°22'0 0.0
2017-Aug-13 07:00N 37°49' W 122°22'0 0.0
2017-Aug-13 06:30N 37°49' W 122°22'0 0.0
2017-Aug-13 06:00N 37°49' W 122°22'0 0.0
2017-Aug-13 05:30N 37°49' W 122°22'0 0.0
2017-Aug-13 04:59N 37°49' W 122°22'0 0.0
2017-Aug-13 04:29N 37°49' W 122°22'0 0.0
2017-Aug-13 03:57N 37°49' W 122°22'0 0.0
2017-Aug-13 03:27N 37°49' W 122°22'0 0.0
2017-Aug-13 02:59N 37°49' W 122°22'0 0.0
2017-Aug-13 02:29N 37°49' W 122°22'0 0.0
2017-Aug-13 01:59N 37°49' W 122°22'0 0.0
2017-Aug-13 01:29N 37°49' W 122°22'0 0.0
2017-Aug-13 00:59N 37°49' W 122°22'0 0.0
2017-Aug-13 00:29N 37°49' W 122°22'0 0.0
2017-Aug-12 23:54N 37°49' W 122°22'0 0.0
2017-Aug-12 23:30N 37°49' W 122°22'0 0.0
2017-Aug-12 23:00N 37°49' W 122°22'0 0.0
2017-Aug-12 22:18N 37°49' W 122°22'0 0.0
2017-Aug-12 21:57N 37°49' W 122°22'0 0.0
2017-Aug-12 21:30N 37°49' W 122°22'0 0.0
2017-Aug-12 20:59N 37°49' W 122°22'0 0.0
2017-Aug-12 20:29N 37°49' W 122°22'0 0.0
2017-Aug-12 19:53N 37°49' W 122°22'0 0.0
2017-Aug-12 19:23N 37°49' W 122°22'0 0.0
2017-Aug-12 18:59N 37°49' W 122°22'0 0.0
2017-Aug-12 18:29N 37°49' W 122°22'0 0.0
2017-Aug-12 17:59N 37°49' W 122°22'0 0.0
2017-Aug-12 17:29N 37°49' W 122°22'0 0.0
2017-Aug-12 16:59N 37°49' W 122°22'0 0.0
2017-Aug-12 16:29N 37°49' W 122°22'0 0.0
2017-Aug-12 15:59N 37°49' W 122°22'0 0.0
2017-Aug-12 15:29N 37°49' W 122°22'0 0.0
2017-Aug-12 15:00N 37°49' W 122°22'0 0.0
2017-Aug-12 14:30N 37°49' W 122°22'0 0.0
2017-Aug-12 14:00N 37°49' W 122°22'0 0.0
2017-Aug-12 13:30N 37°49' W 122°22'0 0.0
2017-Aug-12 13:00N 37°49' W 122°22'0 0.0
2017-Aug-12 12:30N 37°49' W 122°22'0 0.0
2017-Aug-12 12:00N 37°49' W 122°22'0 0.0
2017-Aug-12 11:30N 37°49' W 122°22'0 0.0
2017-Aug-12 11:00N 37°49' W 122°22'0 0.0
2017-Aug-12 10:24N 37°49' W 122°22'0 0.0
2017-Aug-12 10:00N 37°49' W 122°22'0 0.0
2017-Aug-12 09:29N 37°49' W 122°22'0 0.0
2017-Aug-12 08:59N 37°49' W 122°22'0 0.0
2017-Aug-12 08:29N 37°49' W 122°22'0 0.0
2017-Aug-12 07:56N 37°49' W 122°22'0 0.0
2017-Aug-12 07:29N 37°49' W 122°22'0 0.0
2017-Aug-12 06:56N 37°49' W 122°22'0 0.0
2017-Aug-12 06:29N 37°49' W 122°22'0 0.0
2017-Aug-12 05:59N 37°49' W 122°22'0 0.0
2017-Aug-12 05:30N 37°49' W 122°22'0 0.0
2017-Aug-12 04:57N 37°49' W 122°22'0 0.0
2017-Aug-12 04:30N 37°49' W 122°22'0 0.0
2017-Aug-12 03:57N 37°49' W 122°22'0 0.0
2017-Aug-12 03:30N 37°49' W 122°22'0 0.0
2017-Aug-12 03:00N 37°49' W 122°22'0 0.0
2017-Aug-12 02:30N 37°49' W 122°22'0 0.0
2017-Aug-12 01:57N 37°49' W 122°22'0 0.0
2017-Aug-12 01:29N 37°49' W 122°22'0 0.0
2017-Aug-12 00:59N 37°49' W 122°22'0 0.0
2017-Aug-12 00:26N 37°49' W 122°22'0 0.0
2017-Aug-11 23:59N 37°49' W 122°22'0 0.0
2017-Aug-11 23:29N 37°49' W 122°22'0 0.0
2017-Aug-11 22:59N 37°49' W 122°22'0 0.0
2017-Aug-11 22:29N 37°49' W 122°22'0 0.0
2017-Aug-11 21:59N 37°49' W 122°22'0 0.0
2017-Aug-11 21:30N 37°49' W 122°22'0 0.0
2017-Aug-11 20:57N 37°49' W 122°22'0 0.0
2017-Aug-11 20:30N 37°49' W 122°22'0 0.0
2017-Aug-11 20:00N 37°49' W 122°22'0 0.0
2017-Aug-11 19:27N 37°49' W 122°22'0 0.0
2017-Aug-11 19:00N 37°49' W 122°22'0 0.0
2017-Aug-11 18:30N 37°49' W 122°22'0 0.0
2017-Aug-11 17:57N 37°49' W 122°22'0 0.0
2017-Aug-11 17:24N 37°49' W 122°22'0 0.0
2017-Aug-11 17:00N 37°49' W 122°22'0 0.0
2017-Aug-11 16:29N 37°49' W 122°22'0 0.0
2017-Aug-11 15:59N 37°49' W 122°22'0 0.0
2017-Aug-11 15:29N 37°49' W 122°22'0 0.0
2017-Aug-11 14:59N 37°49' W 122°22'0 0.0
2017-Aug-11 13:56N 37°49' W 122°22'0 0.0
2017-Aug-11 13:26N 37°49' W 122°22'0 0.0
2017-Aug-11 12:59N 37°49' W 122°22'0 0.0
2017-Aug-11 12:29N 37°49' W 122°22'0 0.0
2017-Aug-11 11:57N 37°49' W 122°22'0 0.0
2017-Aug-11 11:29N 37°49' W 122°22'0 0.0
2017-Aug-11 11:00N 37°49' W 122°22'0 0.0
2017-Aug-11 10:30N 37°49' W 122°22'0 0.0
2017-Aug-11 10:00N 37°49' W 122°22'0 0.0
2017-Aug-11 09:30N 37°49' W 122°22'0 0.0
2017-Aug-11 08:57N 37°49' W 122°22'0 0.0
2017-Aug-11 08:30N 37°49' W 122°22'0 0.0
2017-Aug-11 08:00N 37°49' W 122°22'0 0.0
2017-Aug-11 07:24N 37°49' W 122°22'0 0.0
2017-Aug-11 06:56N 37°49' W 122°22'0 0.0
2017-Aug-11 06:30N 37°49' W 122°22'0 0.0
2017-Aug-11 06:00N 37°49' W 122°22'0 0.0
2017-Aug-11 05:26N 37°49' W 122°22'0 0.0
2017-Aug-11 04:59N 37°49' W 122°22'0 0.0
2017-Aug-11 04:29N 37°49' W 122°22'0 0.0
2017-Aug-11 03:59N 37°49' W 122°22'0 0.0
2017-Aug-11 03:29N 37°49' W 122°22'0 0.0
2017-Aug-11 02:59N 37°49' W 122°22'0 0.0
2017-Aug-11 02:29N 37°49' W 122°22'0 0.0
2017-Aug-11 01:59N 37°49' W 122°22'0 0.0
2017-Aug-11 01:30N 37°49' W 122°22'0 0.0
2017-Aug-11 01:00N 37°49' W 122°22'0 0.0
2017-Aug-11 00:27N 37°49' W 122°22'0 0.0
2017-Aug-10 23:44N 37°49' W 122°22'0 0.0
2017-Aug-10 23:30N 37°49' W 122°22'0 0.0
2017-Aug-10 22:56N 37°49' W 122°22'0 0.0
2017-Aug-10 22:30N 37°49' W 122°22'0 0.0
2017-Aug-10 22:00N 37°49' W 122°22'0 0.0
2017-Aug-10 21:30N 37°49' W 122°22'0 0.0
2017-Aug-10 21:00N 37°49' W 122°22'0 0.0
2017-Aug-10 20:30N 37°49' W 122°22'0 0.0
2017-Aug-10 19:59N 37°49' W 122°22'0 0.0
2017-Aug-10 19:29N 37°49' W 122°22'0 0.0
2017-Aug-10 18:59N 37°49' W 122°22'0 0.0
2017-Aug-10 18:29N 37°49' W 122°22'0 0.0
2017-Aug-10 17:59N 37°49' W 122°22'0 0.0
2017-Aug-10 17:29N 37°49' W 122°22'0 0.0
2017-Aug-10 16:53N 37°49' W 122°22'0 0.0
2017-Aug-10 16:29N 37°49' W 122°22'0 0.0
2017-Aug-10 15:59N 37°49' W 122°22'0 0.0
2017-Aug-10 15:26N 37°49' W 122°22'0 0.0
2017-Aug-10 14:59N 37°49' W 122°22'0 0.0
2017-Aug-10 14:20N 37°49' W 122°22'0 0.0
2017-Aug-10 13:56N 37°49' W 122°22'0 0.0
2017-Aug-10 13:30N 37°49' W 122°22'0 0.0
2017-Aug-10 13:00N 37°49' W 122°22'0 0.0
2017-Aug-10 12:30N 37°49' W 122°22'0 0.0
2017-Aug-10 11:57N 37°49' W 122°22'0 0.0
2017-Aug-10 11:27N 37°49' W 122°22'0 0.0
2017-Aug-10 11:00N 37°49' W 122°22'0 0.0
2017-Aug-10 10:30N 37°49' W 122°22'0 0.0
2017-Aug-10 09:57N 37°49' W 122°22'0 0.0
2017-Aug-10 09:29N 37°49' W 122°22'0 0.0
2017-Aug-10 09:00N 37°49' W 122°22'0 0.0
2017-Aug-10 08:30N 37°49' W 122°22'0 0.0
2017-Aug-10 07:59N 37°49' W 122°22'0 0.0
2017-Aug-10 07:29N 37°49' W 122°22'0 0.0
2017-Aug-10 06:59N 37°49' W 122°22'0 0.0
2017-Aug-10 06:23N 37°49' W 122°22'0 0.0
2017-Aug-10 06:00N 37°49' W 122°22'0 0.0
2017-Aug-10 05:30N 37°49' W 122°22'0 0.0
2017-Aug-10 05:00N 37°49' W 122°22'0 0.0
2017-Aug-10 04:30N 37°49' W 122°22'0 0.0
2017-Aug-10 04:00N 37°49' W 122°22'0 0.0
2017-Aug-10 03:30N 37°49' W 122°22'0 0.0
2017-Aug-10 03:00N 37°49' W 122°22'0 0.0
2017-Aug-10 02:30N 37°49' W 122°22'0 0.0
2017-Aug-10 01:59N 37°49' W 122°22'0 0.0
2017-Aug-10 01:30N 37°49' W 122°22'0 0.0
2017-Aug-10 00:53N 37°49' W 122°22'0 0.0
2017-Aug-10 00:29N 37°49' W 122°22'0 0.0
2017-Aug-09 23:59N 37°49' W 122°22'0 0.0
2017-Aug-09 23:17N 37°49' W 122°22'0 0.0
2017-Aug-09 22:59N 37°49' W 122°22'0 0.0
2017-Aug-09 22:29N 37°49' W 122°22'0 0.0
2017-Aug-09 21:59N 37°49' W 122°22'0 0.0
2017-Aug-09 21:29N 37°49' W 122°22'0 0.0
2017-Aug-09 21:00N 37°49' W 122°22'0 0.0
2017-Aug-09 20:30N 37°49' W 122°22'0 0.0
2017-Aug-09 19:56N 37°49' W 122°22'0 0.0
2017-Aug-09 19:30N 37°49' W 122°22'0 0.0
2017-Aug-09 19:00N 37°49' W 122°22'0 0.0
2017-Aug-09 18:24N 37°49' W 122°22'0 0.0
2017-Aug-09 17:54N 37°49' W 122°22'0 0.0
2017-Aug-09 17:27N 37°49' W 122°22'0 0.0
2017-Aug-09 17:00N 37°49' W 122°22'0 0.0
2017-Aug-09 16:30N 37°49' W 122°22'0 0.0
2017-Aug-09 16:00N 37°49' W 122°22'0 0.0
2017-Aug-09 15:30N 37°49' W 122°22'0 0.0
2017-Aug-09 14:51N 37°49' W 122°22'0 0.0
2017-Aug-09 14:29N 37°49' W 122°22'0 0.0
2017-Aug-09 13:59N 37°49' W 122°22'0 0.0
2017-Aug-09 13:27N 37°49' W 122°22'0 0.0
2017-Aug-09 12:59N 37°49' W 122°22'0 0.0
2017-Aug-09 12:29N 37°49' W 122°22'0 0.0
2017-Aug-09 11:59N 37°49' W 122°22'0 0.0
2017-Aug-09 11:29N 37°49' W 122°22'0 0.0
2017-Aug-09 11:00N 37°49' W 122°22'0 0.0
2017-Aug-09 10:30N 37°49' W 122°22'0 0.0
2017-Aug-09 10:00N 37°49' W 122°22'0 0.0
2017-Aug-09 09:30N 37°49' W 122°22'0 0.0
2017-Aug-09 09:00N 37°49' W 122°22'0 0.0
2017-Aug-09 08:30N 37°49' W 122°22'0 0.0
2017-Aug-09 08:00N 37°49' W 122°22'0 0.0
2017-Aug-09 07:30N 37°49' W 122°22'0 0.0
2017-Aug-09 07:00N 37°49' W 122°22'0 0.0
2017-Aug-09 06:30N 37°49' W 122°22'0 0.0
2017-Aug-09 06:00N 37°49' W 122°22'0 0.0
2017-Aug-09 05:30N 37°49' W 122°22'0 0.0
2017-Aug-09 05:00N 37°49' W 122°22'0 0.0
2017-Aug-09 04:30N 37°49' W 122°22'0 0.0
2017-Aug-09 04:00N 37°49' W 122°22'0 0.0
2017-Aug-09 03:30N 37°49' W 122°22'0 0.0
2017-Aug-09 02:59N 37°49' W 122°22'0 0.0
2017-Aug-09 02:26N 37°49' W 122°22'0 0.0
2017-Aug-09 01:57N 37°49' W 122°22'0 0.0
2017-Aug-09 01:30N 37°49' W 122°22'0 0.0
2017-Aug-09 01:00N 37°49' W 122°22'0 0.0
2017-Aug-09 00:30N 37°49' W 122°22'0 0.0
2017-Aug-09 00:00N 37°49' W 122°22'0 0.0
2017-Aug-08 23:30N 37°49' W 122°22'0 0.0
2017-Aug-08 23:00N 37°49' W 122°22'0 0.0
2017-Aug-08 22:30N 37°49' W 122°22'0 0.0
2017-Aug-08 22:00N 37°49' W 122°22'0 0.0
2017-Aug-08 21:30N 37°49' W 122°22'0 0.0
2017-Aug-08 21:00N 37°49' W 122°22'0 0.0
2017-Aug-08 20:30N 37°49' W 122°22'0 0.0
2017-Aug-08 20:00N 37°49' W 122°22'0 0.0
2017-Aug-08 19:30N 37°49' W 122°22'0 0.0
2017-Aug-08 18:54N 37°49' W 122°22'0 0.0
2017-Aug-08 18:30N 37°49' W 122°22'0 0.0
2017-Aug-08 18:00N 37°49' W 122°22'0 0.0
2017-Aug-08 17:11N 37°49' W 122°22'0 0.0
2017-Aug-08 16:59N 37°49' W 122°22'0 0.0
2017-Aug-08 16:29N 37°49' W 122°22'0 0.0
2017-Aug-08 15:53N 37°49' W 122°22'0 0.0
2017-Aug-08 15:29N 37°49' W 122°22'0 0.0
2017-Aug-08 15:00N 37°49' W 122°22'0 0.0
2017-Aug-08 14:26N 37°49' W 122°22'0 0.0
2017-Aug-08 14:00N 37°49' W 122°22'0 0.0
2017-Aug-08 13:30N 37°49' W 122°22'0 0.0
2017-Aug-08 13:00N 37°49' W 122°22'0 0.0
2017-Aug-08 12:30N 37°49' W 122°22'0 0.0
2017-Aug-08 12:00N 37°49' W 122°22'0 0.0
2017-Aug-08 11:29N 37°49' W 122°22'0 0.0
2017-Aug-08 10:59N 37°49' W 122°22'0 0.0
2017-Aug-08 10:27N 37°49' W 122°22'0 0.0
2017-Aug-08 09:59N 37°49' W 122°22'0 0.0
2017-Aug-08 09:30N 37°49' W 122°22'0 0.0
2017-Aug-08 09:00N 37°49' W 122°22'0 0.0
2017-Aug-08 08:30N 37°49' W 122°22'0 0.0
2017-Aug-08 07:54N 37°49' W 122°22'0 0.0
2017-Aug-08 07:30N 37°49' W 122°22'0 0.0
2017-Aug-08 06:54N 37°49' W 122°22'0 0.0
2017-Aug-08 06:30N 37°49' W 122°22'0 0.0
2017-Aug-08 06:00N 37°49' W 122°22'0 0.0
2017-Aug-08 05:30N 37°49' W 122°22'0 0.0
2017-Aug-08 04:56N 37°49' W 122°22'0 0.0
2017-Aug-08 04:30N 37°49' W 122°22'0 0.0
2017-Aug-08 03:59N 37°49' W 122°22'0 0.0
2017-Aug-08 03:23N 37°49' W 122°22'0 0.0
2017-Aug-08 02:59N 37°49' W 122°22'0 0.0
2017-Aug-08 02:29N 37°49' W 122°22'0 0.0
2017-Aug-08 01:59N 37°49' W 122°22'0 0.0
2017-Aug-08 01:30N 37°49' W 122°22'0 0.0
2017-Aug-08 01:00N 37°49' W 122°22'0 0.0
2017-Aug-08 00:24N 37°49' W 122°22'0 0.0
2017-Aug-08 00:00N 37°49' W 122°22'0 0.0
2017-Aug-07 23:30N 37°49' W 122°22'0 0.0
2017-Aug-07 23:00N 37°49' W 122°22'0 0.0
2017-Aug-07 22:12N 37°49' W 122°22'0 0.0
2017-Aug-07 22:00N 37°49' W 122°22'0 0.0
2017-Aug-07 21:27N 37°49' W 122°22'0 0.0
2017-Aug-07 21:00N 37°49' W 122°22'0 0.0
2017-Aug-07 20:30N 37°49' W 122°22'0 0.0
2017-Aug-07 20:00N 37°49' W 122°22'0 0.0
2017-Aug-07 19:30N 37°49' W 122°22'0 0.0
2017-Aug-07 18:59N 37°49' W 122°22'0 0.0
2017-Aug-07 18:23N 37°49' W 122°22'0 0.0
2017-Aug-07 17:56N 37°49' W 122°22'0 0.0
2017-Aug-07 17:29N 37°49' W 122°22'0 0.0
2017-Aug-07 17:00N 37°49' W 122°22'0 0.0
2017-Aug-07 16:26N 37°49' W 122°22'0 0.0
2017-Aug-07 15:57N 37°49' W 122°22'0 0.0
2017-Aug-07 15:30N 37°49' W 122°22'0 0.0
2017-Aug-07 15:00N 37°49' W 122°22'0 0.0
2017-Aug-07 14:30N 37°49' W 122°22'0 0.0
2017-Aug-07 13:57N 37°49' W 122°22'0 0.0
2017-Aug-07 13:30N 37°49' W 122°22'0 0.0
2017-Aug-07 13:00N 37°49' W 122°22'0 0.0
2017-Aug-07 12:30N 37°49' W 122°22'0 0.0
2017-Aug-07 11:57N 37°49' W 122°22'0 0.0
2017-Aug-07 11:30N 37°49' W 122°22'0 0.0
2017-Aug-07 11:00N 37°49' W 122°22'0 0.0
2017-Aug-07 10:29N 37°49' W 122°22'0 0.0
2017-Aug-07 09:59N 37°49' W 122°22'0 0.0
2017-Aug-07 09:29N 37°49' W 122°22'0 0.0
2017-Aug-07 08:59N 37°49' W 122°22'0 0.0
2017-Aug-07 08:29N 37°49' W 122°22'0 0.0
2017-Aug-07 08:00N 37°49' W 122°22'0 0.0
2017-Aug-07 07:30N 37°49' W 122°22'0 0.0
2017-Aug-07 06:54N 37°49' W 122°22'0 0.0
2017-Aug-07 06:30N 37°49' W 122°22'0 0.0
2017-Aug-07 06:00N 37°49' W 122°22'0 0.0
2017-Aug-07 05:30N 37°49' W 122°22'0 0.0
2017-Aug-07 04:57N 37°49' W 122°22'0 0.0
2017-Aug-07 04:30N 37°49' W 122°22'0 0.0
2017-Aug-07 04:00N 37°49' W 122°22'0 0.0
2017-Aug-07 03:30N 37°49' W 122°22'0 0.0
2017-Aug-07 03:00N 37°49' W 122°22'0 0.0
2017-Aug-07 02:30N 37°49' W 122°22'0 0.0
2017-Aug-07 02:00N 37°49' W 122°22'0 0.0
2017-Aug-07 01:24N 37°49' W 122°22'0 0.0
2017-Aug-07 01:00N 37°49' W 122°22'0 0.0
2017-Aug-07 00:30N 37°49' W 122°22'0 0.0
2017-Aug-06 23:59N 37°49' W 122°22'  

Dump ship's entire track history